Time;durP1;ratioP1;P1;durP2;ratioP2;P2;SDS_P1;SDS_P2;PMS_P1;PMS_P2;Temp;Humidity;BMP_temperature;BMP_pressure;BME280_temperature;BME280_humidity;BME280_pressure;Samples;Min_cycle;Max_cycle;Signal;HPM_P1;HPM_P2
2022/08/17 00:00:13;;;;;;;8.43;3.83;;;;;;;;;;4972469;28;20234;-83
2022/08/17 00:03:21;;;;;;;7.33;4.00;;;;;;;;;;4984186;28;20195;-83
2022/08/17 00:06:28;;;;;;;5.10;3.97;;;;;;;;;;4971427;28;20674;-84
2022/08/17 00:09:32;;;;;;;4.97;3.57;;;;;;;;;;4982675;28;20219;-84
2022/08/17 00:12:41;;;;;;;4.83;3.70;;;;;;;;;;4960408;28;20503;-84
2022/08/17 00:15:46;;;;;;;4.53;3.70;;;;;;;;;;4981836;28;20179;-84
2022/08/17 00:18:50;;;;;;;6.23;3.73;;;;;;;;;;4981555;28;20226;-84
2022/08/17 00:21:59;;;;;;;7.27;3.87;;;;;;;;;;4982777;28;20527;-83
2022/08/17 00:25:06;;;;;;;5.27;3.80;;;;;;;;;;4980496;28;20199;-83
2022/08/17 00:28:11;;;;;;;4.30;3.90;;;;;;;;;;4967731;28;20207;-84
2022/08/17 00:31:15;;;;;;;5.23;3.90;;;;;;;;;;4938002;29;20179;-84
2022/08/17 00:34:19;;;;;;;8.60;3.97;;;;;;;;;;4970522;28;20180;-84
2022/08/17 00:37:23;;;;;;;6.03;4.07;;;;;;;;;;4969492;28;20187;-84
2022/08/17 00:40:27;;;;;;;4.83;3.60;;;;;;;;;;4958201;28;20706;-85
2022/08/17 00:43:40;;;;;;;5.63;3.90;;;;;;;;;;4957661;29;20192;-84
2022/08/17 00:46:46;;;;;;;7.27;4.20;;;;;;;;;;4956799;29;20199;-84
2022/08/17 00:49:50;;;;;;;7.40;4.67;;;;;;;;;;4957983;28;20212;-84
2022/08/17 00:52:56;;;;;;;4.57;4.17;;;;;;;;;;4974669;28;20198;-85
2022/08/17 00:56:04;;;;;;;6.80;4.53;;;;;;;;;;4965576;28;20179;-84
2022/08/17 00:59:10;;;;;;;5.90;4.47;;;;;;;;;;4975878;28;20234;-84
2022/08/17 01:02:18;;;;;;;7.60;4.53;;;;;;;;;;4965434;28;20179;-84
2022/08/17 01:05:25;;;;;;;7.63;4.80;;;;;;;;;;4965241;28;20516;-84
2022/08/17 01:08:30;;;;;;;5.57;4.17;;;;;;;;;;4968790;28;20179;-83
2022/08/17 01:11:35;;;;;;;5.33;4.83;;;;;;;;;;4958687;28;20203;-84
2022/08/17 01:14:40;;;;;;;5.07;4.13;;;;;;;;;;4979265;28;20183;-84
2022/08/17 01:17:45;;;;;;;13.93;4.80;;;;;;;;;;4979017;28;20183;-85
2022/08/17 01:20:52;;;;;;;6.83;4.70;;;;;;;;;;4978401;28;20214;-85
2022/08/17 01:23:56;;;;;;;6.30;4.73;;;;;;;;;;4967692;28;20179;-85
2022/08/17 01:27:01;;;;;;;5.33;4.83;;;;;;;;;;4967466;28;20187;-84
2022/08/17 01:30:09;;;;;;;8.13;4.20;;;;;;;;;;4979035;28;20214;-84
2022/08/17 01:33:13;;;;;;;5.27;4.77;;;;;;;;;;4968087;28;20190;-83
2022/08/17 01:36:17;;;;;;;9.50;5.03;;;;;;;;;;4979056;28;20183;-83
2022/08/17 01:39:33;;;;;;;8.30;5.17;;;;;;;;;;4956523;28;20234;-83
2022/08/17 01:42:42;;;;;;;5.23;4.30;;;;;;;;;;4978966;28;20187;-83
2022/08/17 01:45:50;;;;;;;8.33;4.87;;;;;;;;;;4967470;28;20191;-83
2022/08/17 01:48:56;;;;;;;5.47;4.93;;;;;;;;;;4956976;28;20211;-84
2022/08/17 01:52:07;;;;;;;5.30;4.60;;;;;;;;;;4956281;28;20179;-83
2022/08/17 01:55:14;;;;;;;6.17;4.70;;;;;;;;;;4956580;28;20179;-83
2022/08/17 01:58:19;;;;;;;5.60;5.00;;;;;;;;;;4956771;28;20187;-83
2022/08/17 02:01:26;;;;;;;5.07;4.67;;;;;;;;;;4967757;28;20175;-84
2022/08/17 02:04:31;;;;;;;11.43;4.83;;;;;;;;;;4956486;28;20175;-82
2022/08/17 02:07:35;;;;;;;12.37;4.70;;;;;;;;;;4966627;28;20211;-83
2022/08/17 02:10:39;;;;;;;7.93;5.10;;;;;;;;;;4979484;28;20223;-82
2022/08/17 02:13:46;;;;;;;5.20;4.37;;;;;;;;;;4966867;28;20198;-82
2022/08/17 02:16:51;;;;;;;6.80;4.30;;;;;;;;;;4967349;28;20179;-83
2022/08/17 02:19:54;;;;;;;4.50;4.10;;;;;;;;;;4967380;28;20230;-82
2022/08/17 02:23:01;;;;;;;9.47;5.20;;;;;;;;;;4979025;28;20527;-82
2022/08/17 02:26:06;;;;;;;6.53;4.70;;;;;;;;;;4978490;28;20519;-83
2022/08/17 02:29:11;;;;;;;5.77;4.37;;;;;;;;;;4966575;28;20210;-83
2022/08/17 02:32:23;;;;;;;4.73;4.33;;;;;;;;;;4946673;29;20211;-82
2022/08/17 02:35:27;;;;;;;6.53;4.87;;;;;;;;;;4957882;28;20184;-83
2022/08/17 02:38:32;;;;;;;5.10;4.50;;;;;;;;;;4969050;28;20639;-83
2022/08/17 02:41:37;;;;;;;5.73;4.47;;;;;;;;;;4968830;28;20195;-83
2022/08/17 02:44:41;;;;;;;4.67;4.20;;;;;;;;;;4957899;29;20635;-83
2022/08/17 02:47:46;;;;;;;4.80;4.40;;;;;;;;;;4947128;29;20183;-83
2022/08/17 02:50:50;;;;;;;4.80;4.30;;;;;;;;;;4947026;29;20207;-82
2022/08/17 02:53:54;;;;;;;5.53;4.53;;;;;;;;;;4946420;29;20176;-82
2022/08/17 02:56:58;;;;;;;5.80;4.80;;;;;;;;;;4946421;29;20563;-83
2022/08/17 03:00:08;;;;;;;48.80;6.27;;;;;;;;;;4957577;28;20231;-83
2022/08/17 03:03:17;;;;;;;4.73;4.20;;;;;;;;;;4957441;29;20180;-82
2022/08/17 03:06:22;;;;;;;14.17;5.27;;;;;;;;;;4946168;29;20184;-83
2022/08/17 03:09:26;;;;;;;11.10;4.53;;;;;;;;;;4956983;28;20219;-82
2022/08/17 03:12:33;;;;;;;8.03;3.97;;;;;;;;;;4957418;29;20638;-82
2022/08/17 03:15:38;;;;;;;12.77;4.97;;;;;;;;;;4946349;29;20512;-82
2022/08/17 03:18:43;;;;;;;6.50;4.70;;;;;;;;;;4968928;28;20641;-83
2022/08/17 03:21:47;;;;;;;4.80;4.40;;;;;;;;;;4957219;29;20179;-82
2022/08/17 03:24:52;;;;;;;8.80;4.73;;;;;;;;;;4946035;29;20183;-82
2022/08/17 03:27:56;;;;;;;6.63;4.40;;;;;;;;;;4956757;28;20184;-82
2022/08/17 03:30:59;;;;;;;8.33;4.93;;;;;;;;;;4957155;29;20184;-83
2022/08/17 03:34:04;;;;;;;6.57;4.70;;;;;;;;;;4957670;29;20203;-82
2022/08/17 03:37:08;;;;;;;4.90;4.40;;;;;;;;;;4956490;29;20203;-82
2022/08/17 03:40:13;;;;;;;4.70;4.30;;;;;;;;;;4956603;28;20227;-82
2022/08/17 03:43:20;;;;;;;5.30;4.80;;;;;;;;;;4946024;29;20200;-82
2022/08/17 03:56:42;;;;;;;7.23;4.70;;;;;;;;;;4975841;28;20202;-83
2022/08/17 03:59:46;;;;;;;5.63;4.80;;;;;;;;;;4976620;28;20222;-84
2022/08/17 04:02:50;;;;;;;8.33;4.73;;;;;;;;;;4954428;28;20531;-83
2022/08/17 04:05:54;;;;;;;7.27;4.93;;;;;;;;;;4954779;28;20183;-83
2022/08/17 04:08:58;;;;;;;8.33;5.00;;;;;;;;;;4965375;28;20214;-83
2022/08/17 04:12:03;;;;;;;7.70;4.90;;;;;;;;;;4965193;28;20194;-84
2022/08/17 04:15:08;;;;;;;7.67;5.40;;;;;;;;;;4953435;28;20175;-83
2022/08/17 04:18:12;;;;;;;6.20;5.57;;;;;;;;;;4964500;28;20202;-84
2022/08/17 04:21:18;;;;;;;7.47;5.50;;;;;;;;;;4965032;28;20202;-84
2022/08/17 04:24:23;;;;;;;5.47;4.87;;;;;;;;;;4975488;28;20183;-84
2022/08/17 04:27:27;;;;;;;7.10;5.07;;;;;;;;;;4976093;28;20207;-84
2022/08/17 04:30:34;;;;;;;6.33;5.47;;;;;;;;;;4934786;29;20215;-84
2022/08/17 04:33:42;;;;;;;6.03;4.90;;;;;;;;;;4956900;29;20663;-85
2022/08/17 04:36:48;;;;;;;7.53;5.23;;;;;;;;;;4968367;28;20184;-84
2022/08/17 04:42:05;;;;;;;6.87;5.23;;;;;;;;;;4955430;28;20227;-85
2022/08/17 04:43:19;;;;;;;6.97;5.03;;;;;;;;;;4959011;29;20204;-85
2022/08/17 04:46:27;;;;;;;5.37;4.43;;;;;;;;;;4937690;29;20184;-84
2022/08/17 04:49:31;;;;;;;6.87;5.13;;;;;;;;;;4970215;28;20219;-85
2022/08/17 04:52:44;;;;;;;6.53;5.13;;;;;;;;;;4948050;29;20179;-85
2022/08/17 04:55:51;;;;;;;6.70;4.50;;;;;;;;;;4989390;28;20690;-85
2022/08/17 04:58:58;;;;;;;7.63;4.90;;;;;;;;;;4948480;28;20595;-85
2022/08/17 05:02:03;;;;;;;7.03;4.90;;;;;;;;;;4943568;28;20551;-85
2022/08/17 05:05:07;;;;;;;5.60;5.10;;;;;;;;;;4979614;28;20179;-85
2022/08/17 05:08:11;;;;;;;8.27;5.40;;;;;;;;;;4956613;28;20183;-85
2022/08/17 05:11:16;;;;;;;10.33;5.53;;;;;;;;;;4956492;28;20190;-85
2022/08/17 05:14:21;;;;;;;10.27;6.00;;;;;;;;;;4967299;28;20179;-85
2022/08/17 05:17:24;;;;;;;9.70;5.90;;;;;;;;;;4967570;28;20187;-84
2022/08/17 05:20:30;;;;;;;7.57;5.03;;;;;;;;;;4956771;28;20230;-85
2022/08/17 05:23:35;;;;;;;6.30;5.20;;;;;;;;;;4966835;28;20544;-84
2022/08/17 05:26:41;;;;;;;7.00;5.50;;;;;;;;;;4956589;28;20183;-85
2022/08/17 05:29:45;;;;;;;10.23;5.60;;;;;;;;;;4966791;28;20219;-84
2022/08/17 05:32:57;;;;;;;8.57;5.73;;;;;;;;;;4967448;28;20634;-84
2022/08/17 05:36:04;;;;;;;7.87;5.47;;;;;;;;;;4957083;28;20179;-84
2022/08/17 05:39:09;;;;;;;6.67;4.90;;;;;;;;;;4967818;28;20218;-83
2022/08/17 05:42:17;;;;;;;6.00;5.40;;;;;;;;;;4967360;28;20179;-83
2022/08/17 05:45:21;;;;;;;7.80;5.90;;;;;;;;;;4978064;28;20524;-83
2022/08/17 05:48:25;;;;;;;14.43;6.53;;;;;;;;;;4966643;28;20543;-85
2022/08/17 05:51:32;;;;;;;9.83;6.33;;;;;;;;;;4956560;28;20170;-85
2022/08/17 05:54:50;;;;;;;9.37;7.00;;;;;;;;;;4969419;28;20195;-84
2022/08/17 05:58:38;;;;;;;7.17;6.47;;;;;;;;;;4968896;28;20183;-85
2022/08/17 06:01:54;;;;;;;8.43;6.10;;;;;;;;;;4958923;28;20214;-85
2022/08/17 06:05:26;;;;;;;9.20;6.47;;;;;;;;;;4970111;28;20191;-85
2022/08/17 06:08:49;;;;;;;10.67;5.83;;;;;;;;;;4986109;28;20202;-85
2022/08/17 06:12:20;;;;;;;10.63;5.70;;;;;;;;;;4975169;28;20519;-85
2022/08/17 06:15:33;;;;;;;10.70;6.23;;;;;;;;;;4973724;28;20187;-85
2022/08/17 06:18:44;;;;;;;7.80;6.23;;;;;;;;;;4973468;28;20187;-85
2022/08/17 06:21:52;;;;;;;14.20;6.50;;;;;;;;;;4973505;28;20211;-85
2022/08/17 06:25:03;;;;;;;7.07;5.97;;;;;;;;;;4973111;28;20673;-85
2022/08/17 06:28:13;;;;;;;9.97;6.00;;;;;;;;;;4961625;28;20191;-85
2022/08/17 06:31:28;;;;;;;8.57;5.57;;;;;;;;;;4961198;28;20195;-85
2022/08/17 06:34:32;;;;;;;35.77;6.97;;;;;;;;;;4972116;28;20627;-85
2022/08/17 06:37:47;;;;;;;35.43;6.60;;;;;;;;;;4972134;28;20183;-85
2022/08/17 06:40:54;;;;;;;7.10;5.33;;;;;;;;;;4958507;28;20230;-85
2022/08/17 06:44:13;;;;;;;9.50;5.67;;;;;;;;;;4969097;28;20203;-85
2022/08/17 06:47:43;;;;;;;25.17;5.83;;;;;;;;;;4958307;28;20187;-86
2022/08/17 06:50:52;;;;;;;31.97;6.10;;;;;;;;;;4967504;28;20214;-86
2022/08/17 06:54:28;;;;;;;14.00;5.40;;;;;;;;;;4965496;28;20191;-86
2022/08/17 06:57:36;;;;;;;9.50;5.90;;;;;;;;;;4966509;28;20187;-85
2022/08/17 07:00:44;;;;;;;8.37;5.10;;;;;;;;;;4966176;28;20230;-86
2022/08/17 07:04:05;;;;;;;12.63;5.40;;;;;;;;;;4954458;28;20180;-86
2022/08/17 07:10:59;;;;;;;46.73;5.93;;;;;;;;;;4966373;28;20567;-86
2022/08/17 07:14:22;;;;;;;9.77;3.77;;;;;;;;;;4965143;28;20183;-86
2022/08/17 07:17:26;;;;;;;5.10;3.77;;;;;;;;;;4954200;28;20187;-86
2022/08/17 07:20:32;;;;;;;8.30;3.60;;;;;;;;;;4987302;28;20227;-86
2022/08/17 07:23:55;;;;;;;5.43;3.73;;;;;;;;;;4954232;28;20508;-86
2022/08/17 07:27:09;;;;;;;6.93;3.00;;;;;;;;;;4964910;28;20622;-86
2022/08/17 07:30:18;;;;;;;6.03;3.30;;;;;;;;;;4953168;28;20214;-86
2022/08/17 07:33:26;;;;;;;4.90;3.00;;;;;;;;;;4975649;28;20183;-86
2022/08/17 07:36:32;;;;;;;2.93;2.63;;;;;;;;;;4953420;28;20183;-86
2022/08/17 07:39:36;;;;;;;3.43;2.73;;;;;;;;;;4975551;28;20226;-86
2022/08/17 07:42:40;;;;;;;3.60;2.97;;;;;;;;;;4964285;28;20187;-86
2022/08/17 07:49:37;;;;;;;46.73;5.17;;;;;;;;;;4975544;28;20223;-86
2022/08/17 07:52:41;;;;;;;44.20;5.00;;;;;;;;;;4953194;28;20191;-86
2022/08/17 07:55:45;;;;;;;22.40;3.67;;;;;;;;;;4964154;28;20182;-86
2022/08/17 07:59:05;;;;;;;4.80;3.07;;;;;;;;;;4963922;28;20185;-86
2022/08/17 08:02:24;;;;;;;5.10;2.87;;;;;;;;;;4975297;28;20678;-86
2022/08/17 08:05:29;;;;;;;8.77;2.80;;;;;;;;;;4953313;28;20183;-86
2022/08/17 08:08:41;;;;;;;8.43;2.53;;;;;;;;;;4952938;28;20197;-86
2022/08/17 08:11:45;;;;;;;6.67;2.93;;;;;;;;;;4975362;28;20180;-86
2022/08/17 08:14:59;;;;;;;3.10;2.67;;;;;;;;;;4966533;28;20188;-86
2022/08/17 08:18:17;;;;;;;50.95;4.30;;;;;;;;;;4971008;28;20546;-86
2022/08/17 08:21:29;;;;;;;15.07;2.75;;;;;;;;;;4970142;28;20217;-86
2022/08/17 08:25:06;;;;;;;3.30;2.33;;;;;;;;;;4959717;28;20188;-86
2022/08/17 08:28:32;;;;;;;11.00;2.65;;;;;;;;;;4959322;28;20183;-86
2022/08/17 08:31:48;;;;;;;3.47;2.20;;;;;;;;;;4970427;28;20182;-86
2022/08/17 08:35:15;;;;;;;3.17;2.35;;;;;;;;;;4958752;28;20569;-86
2022/08/17 08:38:41;;;;;;;2.88;2.55;;;;;;;;;;4969609;28;20187;-86
2022/08/17 08:42:07;;;;;;;5.13;2.05;;;;;;;;;;4959001;28;20215;-87
2022/08/17 08:45:19;;;;;;;5.57;2.20;;;;;;;;;;4980873;28;20188;-86
2022/08/17 08:48:29;;;;;;;4.68;2.33;;;;;;;;;;4970069;28;20179;-86
2022/08/17 08:51:57;;;;;;;25.63;3.35;;;;;;;;;;4969552;28;20176;-86
2022/08/17 08:55:19;;;;;;;4.78;2.40;;;;;;;;;;4958898;28;20187;-86
2022/08/17 08:58:33;;;;;;;2.33;2.13;;;;;;;;;;4980299;28;20634;-86
2022/08/17 09:02:08;;;;;;;3.90;2.42;;;;;;;;;;4958489;28;20662;-86
2022/08/17 09:05:41;;;;;;;3.50;2.10;;;;;;;;;;4969659;28;20187;-86
2022/08/17 09:09:05;;;;;;;126.63;10.50;;;;;;;;;;4974464;28;20206;-87
2022/08/17 09:12:40;;;;;;;5.18;2.28;;;;;;;;;;4958576;28;20646;-85
2022/08/17 09:15:48;;;;;;;8.90;2.58;;;;;;;;;;4969905;28;20515;-86
2022/08/17 09:19:01;;;;;;;2.70;2.30;;;;;;;;;;4958081;28;20574;-85
2022/08/17 09:22:22;;;;;;;2.17;1.80;;;;;;;;;;4968965;28;20670;-85
2022/08/17 09:25:31;;;;;;;5.85;2.40;;;;;;;;;;4969394;28;20187;-85
2022/08/17 09:28:39;;;;;;;2.22;1.88;;;;;;;;;;4955079;28;20635;-86
2022/08/17 09:31:54;;;;;;;3.63;2.15;;;;;;;;;;4955292;28;20175;-85
2022/08/17 09:35:04;;;;;;;4.10;2.05;;;;;;;;;;4955542;28;20553;-85
2022/08/17 09:38:25;;;;;;;7.60;2.00;;;;;;;;;;4966387;28;20527;-85
2022/08/17 09:41:47;;;;;;;2.70;2.00;;;;;;;;;;4955030;28;20549;-85
2022/08/17 09:45:16;;;;;;;2.00;1.80;;;;;;;;;;4955470;28;20183;-85
2022/08/17 09:48:32;;;;;;;4.75;1.98;;;;;;;;;;4978009;28;20187;-85
2022/08/17 09:51:57;;;;;;;2.55;1.60;;;;;;;;;;4955493;28;20180;-85
2022/08/17 09:55:04;;;;;;;4.28;2.25;;;;;;;;;;4955349;28;20526;-85
2022/08/17 09:58:21;;;;;;;2.85;2.00;;;;;;;;;;4955109;28;20542;-85
2022/08/17 10:01:38;;;;;;;2.97;2.00;;;;;;;;;;4966113;28;20207;-85
2022/08/17 10:04:56;;;;;;;1.83;1.63;;;;;;;;;;4977058;28;20531;-85
2022/08/17 10:08:11;;;;;;;2.20;1.98;;;;;;;;;;4955826;28;20179;-84
2022/08/17 10:15:21;;;;;;;3.42;1.90;;;;;;;;;;4965329;28;20183;-84
2022/08/17 10:18:42;;;;;;;3.88;2.15;;;;;;;;;;4979481;28;20202;-85
2022/08/17 10:29:08;;;;;;;2.70;1.90;;;;;;;;;;4995429;28;20186;-85
2022/08/17 10:32:37;;;;;;;2.45;1.90;;;;;;;;;;4995477;28;20187;-84
2022/08/17 10:35:50;;;;;;;7.68;2.30;;;;;;;;;;4973381;28;20182;-85
2022/08/17 10:39:25;;;;;;;5.53;2.08;;;;;;;;;;4994342;28;20218;-85
2022/08/17 10:42:35;;;;;;;3.45;2.25;;;;;;;;;;4984518;28;20210;-85
2022/08/17 10:46:10;;;;;;;35.05;4.35;;;;;;;;;;4974286;28;20204;-85
2022/08/17 10:49:17;;;;;;;5.38;2.10;;;;;;;;;;4938962;28;20219;-85
2022/08/17 10:52:21;;;;;;;2.05;1.85;;;;;;;;;;4945496;29;20180;-85
2022/08/17 10:55:26;;;;;;;2.40;2.10;;;;;;;;;;4967496;28;20526;-85
2022/08/17 10:58:57;;;;;;;3.33;2.00;;;;;;;;;;4956966;29;20639;-85
2022/08/17 11:02:16;;;;;;;2.05;1.90;;;;;;;;;;4945611;29;20216;-85
2022/08/17 11:05:45;;;;;;;3.45;1.83;;;;;;;;;;4946161;29;20180;-85
2022/08/17 11:08:56;;;;;;;2.30;1.70;;;;;;;;;;4967050;28;20191;-85
2022/08/17 11:12:24;;;;;;;4.05;2.00;;;;;;;;;;4945906;29;20516;-85
2022/08/17 11:16:01;;;;;;;2.58;1.92;;;;;;;;;;4971312;28;20184;-86
2022/08/17 11:19:30;;;;;;;63.00;4.80;;;;;;;;;;4965744;28;20214;-86
2022/08/17 11:22:56;;;;;;;4.55;2.22;;;;;;;;;;4967164;28;20212;-86
2022/08/17 11:26:02;;;;;;;4.75;1.77;;;;;;;;;;4955808;29;20188;-86
2022/08/17 11:29:22;;;;;;;4.70;2.13;;;;;;;;;;4967847;28;20215;-86
2022/08/17 11:32:31;;;;;;;3.92;2.28;;;;;;;;;;4933527;29;20184;-86
2022/08/17 11:35:47;;;;;;;4.15;1.98;;;;;;;;;;4955625;29;20179;-86
2022/08/17 11:39:04;;;;;;;11.43;2.42;;;;;;;;;;4955568;28;20216;-86
2022/08/17 11:42:33;;;;;;;11.93;2.65;;;;;;;;;;4957541;29;20216;-86
2022/08/17 11:46:15;;;;;;;1.90;1.70;;;;;;;;;;4962459;28;20615;-86
2022/08/17 11:52:57;;;;;;;3.55;2.00;;;;;;;;;;4970838;28;20180;-86
2022/08/17 11:56:27;;;;;;;6.07;1.73;;;;;;;;;;4945470;29;20184;-85
2022/08/17 11:59:31;;;;;;;3.70;1.90;;;;;;;;;;4957529;28;20230;-87
2022/08/17 12:02:42;;;;;;;5.50;2.13;;;;;;;;;;4961043;28;20227;-86
2022/08/17 12:05:46;;;;;;;4.60;1.80;;;;;;;;;;4971922;28;20207;-87
2022/08/17 12:08:54;;;;;;;4.07;1.90;;;;;;;;;;4970501;28;20183;-86
2022/08/17 12:12:16;;;;;;;7.93;2.45;;;;;;;;;;4970315;28;20207;-86
2022/08/17 12:15:28;;;;;;;4.63;2.13;;;;;;;;;;4970495;28;20188;-86
2022/08/17 12:18:36;;;;;;;13.57;2.75;;;;;;;;;;4970060;28;20187;-86
2022/08/17 12:22:35;;;;;;;3.25;2.08;;;;;;;;;;4969502;28;20175;-86
2022/08/17 12:25:50;;;;;;;3.30;2.10;;;;;;;;;;4954924;28;20546;-86
2022/08/17 12:28:58;;;;;;;4.43;2.10;;;;;;;;;;4966947;28;20218;-85
2022/08/17 12:32:05;;;;;;;5.55;2.42;;;;;;;;;;4966569;28;20211;-86
2022/08/17 12:35:26;;;;;;;7.60;1.98;;;;;;;;;;4965859;28;20199;-86
2022/08/17 12:38:34;;;;;;;3.90;2.10;;;;;;;;;;4958344;28;20536;-86
2022/08/17 12:41:42;;;;;;;6.20;2.20;;;;;;;;;;4965360;28;20184;-86
2022/08/17 12:44:46;;;;;;;4.82;1.92;;;;;;;;;;4953421;28;20206;-86
2022/08/17 12:48:09;;;;;;;2.95;1.90;;;;;;;;;;4975047;28;20199;-86
2022/08/17 12:51:14;;;;;;;7.10;2.33;;;;;;;;;;4964695;28;20192;-85
2022/08/17 12:54:51;;;;;;;3.95;1.98;;;;;;;;;;4964153;28;20175;-86
2022/08/17 12:57:58;;;;;;;10.18;2.55;;;;;;;;;;4981421;28;20183;-86
2022/08/17 13:01:08;;;;;;;2.25;1.92;;;;;;;;;;4953221;28;20183;-86
2022/08/17 13:04:14;;;;;;;5.60;2.50;;;;;;;;;;4967728;28;20179;-86
2022/08/17 13:07:40;;;;;;;4.32;2.28;;;;;;;;;;4956054;28;20199;-86
2022/08/17 13:11:19;;;;;;;2.40;1.90;;;;;;;;;;4977791;28;20226;-86
2022/08/17 13:14:23;;;;;;;2.97;1.70;;;;;;;;;;4951336;28;20211;-86
2022/08/17 13:17:31;;;;;;;4.72;2.25;;;;;;;;;;4956142;28;20183;-86
2022/08/17 13:20:35;;;;;;;3.67;2.20;;;;;;;;;;4956326;28;20686;-85
2022/08/17 13:23:39;;;;;;;3.17;2.40;;;;;;;;;;4967641;28;20179;-86
2022/08/17 13:26:48;;;;;;;4.78;2.10;;;;;;;;;;4977984;28;20184;-86
2022/08/17 13:29:56;;;;;;;2.65;1.70;;;;;;;;;;4966729;28;20698;-86
2022/08/17 13:33:25;;;;;;;15.35;2.78;;;;;;;;;;4966685;28;20215;-85
2022/08/17 13:36:32;;;;;;;68.05;5.25;;;;;;;;;;4955937;28;20176;-85
2022/08/17 13:39:40;;;;;;;8.05;2.42;;;;;;;;;;4966330;28;20214;-86
2022/08/17 13:42:46;;;;;;;4.00;2.00;;;;;;;;;;4966535;28;20183;-86
2022/08/17 13:45:52;;;;;;;20.75;2.72;;;;;;;;;;4966829;28;20215;-86
2022/08/17 13:48:59;;;;;;;3.40;2.35;;;;;;;;;;4955442;28;20219;-86
2022/08/17 13:52:04;;;;;;;2.58;2.25;;;;;;;;;;4955824;28;20674;-86
2022/08/17 13:55:18;;;;;;;2.25;1.95;;;;;;;;;;4967338;28;20202;-86
2022/08/17 13:58:27;;;;;;;3.55;2.03;;;;;;;;;;4966881;28;20183;-86
2022/08/17 14:01:38;;;;;;;41.70;3.58;;;;;;;;;;4987718;28;20203;-86
2022/08/17 14:04:44;;;;;;;4.53;1.90;;;;;;;;;;4977786;28;20191;-86
2022/08/17 14:07:54;;;;;;;9.18;2.80;;;;;;;;;;4966113;28;20180;-86
2022/08/17 14:10:58;;;;;;;3.47;2.40;;;;;;;;;;4965784;28;20207;-86
2022/08/17 14:14:02;;;;;;;2.47;1.80;;;;;;;;;;4935769;29;20231;-86
2022/08/17 14:17:06;;;;;;;3.97;2.00;;;;;;;;;;4974283;28;20190;-86
2022/08/17 14:20:12;;;;;;;3.83;2.25;;;;;;;;;;4985441;28;20678;-87
2022/08/17 14:23:17;;;;;;;59.13;4.55;;;;;;;;;;5007239;28;20174;-88
2022/08/17 14:26:22;;;;;;;11.07;2.30;;;;;;;;;;4935641;29;20184;-86
2022/08/17 14:29:28;;;;;;;2.58;2.05;;;;;;;;;;4957331;28;20223;-87
2022/08/17 14:32:35;;;;;;;5.25;2.03;;;;;;;;;;4968869;28;20211;-87
2022/08/17 14:35:39;;;;;;;5.30;1.95;;;;;;;;;;4946648;29;20180;-86
2022/08/17 14:38:43;;;;;;;2.50;1.98;;;;;;;;;;4946185;28;20184;-86
2022/08/17 14:41:48;;;;;;;6.35;2.15;;;;;;;;;;4968293;28;20188;-86
2022/08/17 14:44:54;;;;;;;6.28;2.15;;;;;;;;;;4965199;28;20199;-86
2022/08/17 14:47:57;;;;;;;5.03;2.03;;;;;;;;;;4965464;28;20183;-86
2022/08/17 14:51:03;;;;;;;5.18;2.05;;;;;;;;;;4954399;28;20513;-86
2022/08/17 14:54:07;;;;;;;3.05;1.90;;;;;;;;;;4965048;28;20227;-86
2022/08/17 14:57:11;;;;;;;5.10;2.00;;;;;;;;;;4954224;28;20183;-86
2022/08/17 15:00:16;;;;;;;2.83;2.03;;;;;;;;;;4953992;28;20211;-85
2022/08/17 15:03:21;;;;;;;3.67;2.08;;;;;;;;;;4964435;28;20199;-86
2022/08/17 15:06:25;;;;;;;4.22;2.10;;;;;;;;;;4965431;28;20191;-89
2022/08/17 15:09:29;;;;;;;24.92;3.30;;;;;;;;;;4953973;28;20231;-85
2022/08/17 15:12:34;;;;;;;4.40;2.13;;;;;;;;;;4953788;28;20222;-86
2022/08/17 15:15:38;;;;;;;3.25;2.10;;;;;;;;;;4954305;28;20187;-85
2022/08/17 15:18:42;;;;;;;3.88;1.92;;;;;;;;;;4965451;28;20183;-85
2022/08/17 15:21:46;;;;;;;7.35;2.50;;;;;;;;;;4964906;28;20183;-85
2022/08/17 15:24:51;;;;;;;6.43;2.08;;;;;;;;;;4953204;28;20183;-85
2022/08/17 15:27:55;;;;;;;4.45;2.03;;;;;;;;;;4964912;28;20646;-85
2022/08/17 15:30:59;;;;;;;12.00;2.90;;;;;;;;;;4956497;28;20179;-85
2022/08/17 15:34:04;;;;;;;7.30;2.40;;;;;;;;;;4965571;28;20576;-85
2022/08/17 15:37:08;;;;;;;3.92;2.45;;;;;;;;;;4975583;28;20183;-85
2022/08/17 15:40:12;;;;;;;20.65;3.25;;;;;;;;;;4954306;28;20679;-85
2022/08/17 15:43:23;;;;;;;12.25;2.97;;;;;;;;;;4965201;28;20175;-85
2022/08/17 15:46:27;;;;;;;5.57;2.55;;;;;;;;;;4955339;28;20175;-85
2022/08/17 15:49:30;;;;;;;4.35;2.30;;;;;;;;;;4966183;28;20215;-85
2022/08/17 15:52:38;;;;;;;9.93;2.40;;;;;;;;;;4953378;28;20175;-85
2022/08/17 15:55:43;;;;;;;7.05;2.50;;;;;;;;;;4966575;28;20623;-85
2022/08/17 15:58:47;;;;;;;6.72;2.40;;;;;;;;;;4964290;28;20199;-85
2022/08/17 16:01:53;;;;;;;3.63;2.35;;;;;;;;;;4954261;28;20647;-87
2022/08/17 16:05:14;;;;;;;5.13;2.20;;;;;;;;;;4953671;28;20179;-85
2022/08/17 16:08:18;;;;;;;3.55;2.42;;;;;;;;;;4953474;28;20187;-87
2022/08/17 16:11:24;;;;;;;5.07;2.55;;;;;;;;;;4964526;28;20183;-87
2022/08/17 16:14:29;;;;;;;2.60;2.40;;;;;;;;;;4963700;28;20215;-88
2022/08/17 16:17:34;;;;;;;3.15;2.00;;;;;;;;;;4952981;28;20191;-87
2022/08/17 16:20:38;;;;;;;7.18;2.35;;;;;;;;;;4963082;28;20557;-87
2022/08/17 16:23:42;;;;;;;10.73;2.50;;;;;;;;;;4953238;28;20175;-87
2022/08/17 16:26:46;;;;;;;4.57;2.35;;;;;;;;;;4964012;28;20182;-87
2022/08/17 16:29:50;;;;;;;11.63;2.50;;;;;;;;;;4974379;28;20222;-86
2022/08/17 16:32:57;;;;;;;16.08;3.13;;;;;;;;;;4975118;28;20187;-86
2022/08/17 16:36:02;;;;;;;10.18;3.10;;;;;;;;;;4977012;28;20203;-87
2022/08/17 16:39:06;;;;;;;5.50;2.65;;;;;;;;;;4979837;28;20222;-87
2022/08/17 16:42:24;;;;;;;15.93;3.22;;;;;;;;;;4969563;28;20202;-87
2022/08/17 16:45:35;;;;;;;20.65;3.22;;;;;;;;;;4971598;28;20187;-87
2022/08/17 16:48:39;;;;;;;11.35;2.65;;;;;;;;;;4959075;28;20519;-86
2022/08/17 16:51:43;;;;;;;10.68;2.60;;;;;;;;;;4979733;28;20187;-85
2022/08/17 16:54:47;;;;;;;10.70;2.60;;;;;;;;;;4958024;28;20215;-85
2022/08/17 16:57:51;;;;;;;4.55;2.33;;;;;;;;;;4980356;28;20203;-85
2022/08/17 17:00:58;;;;;;;5.82;2.90;;;;;;;;;;4958151;28;20226;-86
2022/08/17 17:04:03;;;;;;;4.32;2.47;;;;;;;;;;4956946;28;20647;-86
2022/08/17 17:07:32;;;;;;;2.25;1.98;;;;;;;;;;4966914;28;20187;-86
2022/08/17 17:10:43;;;;;;;6.88;2.10;;;;;;;;;;4979428;28;20222;-86
2022/08/17 17:14:00;;;;;;;2.15;1.95;;;;;;;;;;4956074;28;20210;-86
2022/08/17 17:17:12;;;;;;;4.05;2.58;;;;;;;;;;4967276;28;20196;-86
2022/08/17 17:20:22;;;;;;;48.78;5.47;;;;;;;;;;4978313;28;20224;-86
2022/08/17 17:23:32;;;;;;;11.70;2.92;;;;;;;;;;4983610;28;20177;-86
2022/08/17 17:26:57;;;;;;;14.52;2.97;;;;;;;;;;4962536;28;20178;-86
2022/08/17 17:30:33;;;;;;;2.70;2.00;;;;;;;;;;4972420;28;20562;-87
2022/08/17 17:33:47;;;;;;;6.63;2.15;;;;;;;;;;4972956;28;20221;-86
2022/08/17 17:36:56;;;;;;;10.25;2.70;;;;;;;;;;4964587;28;20198;-86
2022/08/17 17:40:16;;;;;;;4.07;2.17;;;;;;;;;;4976413;28;20215;-86
2022/08/17 17:43:24;;;;;;;19.70;3.53;;;;;;;;;;4972839;28;20206;-86
2022/08/17 17:46:32;;;;;;;47.45;4.55;;;;;;;;;;4962955;28;20203;-86
2022/08/17 17:49:45;;;;;;;7.45;2.90;;;;;;;;;;4964422;28;20223;-86
2022/08/17 17:53:14;;;;;;;6.30;2.40;;;;;;;;;;4956528;28;20191;-85
2022/08/17 17:56:35;;;;;;;3.45;2.15;;;;;;;;;;4978953;28;20198;-86
2022/08/17 17:59:48;;;;;;;4.53;2.60;;;;;;;;;;4968737;28;20677;-86
2022/08/17 18:03:07;;;;;;;4.90;2.67;;;;;;;;;;4960597;28;20193;-86
2022/08/17 18:06:21;;;;;;;5.80;2.28;;;;;;;;;;4969430;28;20201;-86
2022/08/17 18:09:47;;;;;;;4.43;2.40;;;;;;;;;;4970145;28;20235;-86
2022/08/17 18:13:13;;;;;;;4.40;2.20;;;;;;;;;;4958571;28;20197;-86
2022/08/17 18:16:18;;;;;;;3.83;2.70;;;;;;;;;;4970518;28;20193;-87
2022/08/17 18:19:24;;;;;;;3.75;2.50;;;;;;;;;;4967795;28;20216;-86
2022/08/17 18:22:30;;;;;;;2.53;2.33;;;;;;;;;;4969678;28;20664;-86
2022/08/17 18:25:43;;;;;;;3.85;2.60;;;;;;;;;;4954715;28;20195;-87
2022/08/17 18:28:49;;;;;;;6.18;3.10;;;;;;;;;;4959903;28;20195;-87
2022/08/17 18:32:30;;;;;;;5.88;2.85;;;;;;;;;;4964006;28;20187;-86
2022/08/17 18:35:34;;;;;;;21.85;3.30;;;;;;;;;;4964308;28;20224;-86
2022/08/17 18:38:41;;;;;;;7.90;3.20;;;;;;;;;;4945258;28;20203;-86
2022/08/17 18:41:48;;;;;;;8.95;2.90;;;;;;;;;;4963805;28;20209;-86
2022/08/17 18:44:53;;;;;;;5.00;2.60;;;;;;;;;;4965042;28;20202;-86
2022/08/17 18:47:57;;;;;;;3.72;2.97;;;;;;;;;;4964776;28;20198;-86
2022/08/17 18:51:22;;;;;;;3.22;2.92;;;;;;;;;;4976488;28;20193;-85
2022/08/17 18:54:26;;;;;;;3.20;2.90;;;;;;;;;;4962341;28;20227;-86
2022/08/17 18:57:34;;;;;;;5.53;3.40;;;;;;;;;;4947732;29;20532;-86
2022/08/17 19:00:40;;;;;;;5.10;3.27;;;;;;;;;;4963260;28;20219;-86
2022/08/17 19:03:45;;;;;;;5.27;2.93;;;;;;;;;;4964687;28;20207;-86
2022/08/17 19:07:01;;;;;;;6.97;3.17;;;;;;;;;;4963783;28;20202;-86
2022/08/17 19:10:15;;;;;;;4.80;2.87;;;;;;;;;;4952914;28;20238;-83
2022/08/17 19:13:27;;;;;;;4.40;3.43;;;;;;;;;;4975864;28;20202;-84
2022/08/17 19:16:36;;;;;;;3.53;2.90;;;;;;;;;;4965167;28;20187;-85
2022/08/17 19:19:50;;;;;;;4.90;3.07;;;;;;;;;;4977287;28;20689;-85
2022/08/17 19:23:10;;;;;;;3.20;2.90;;;;;;;;;;4963748;28;20666;-84
2022/08/17 19:26:21;;;;;;;4.60;3.20;;;;;;;;;;4966976;28;20191;-83
2022/08/17 19:29:35;;;;;;;5.53;2.77;;;;;;;;;;4954895;28;20227;-85
2022/08/17 19:32:40;;;;;;;5.07;3.10;;;;;;;;;;4975306;28;20193;-85